Time;durP1;ratioP1;P1;durP2;ratioP2;P2;SDS_P1;SDS_P2;PMS_P1;PMS_P2;Temp;Humidity;BMP_temperature;BMP_pressure;BME280_temperature;BME280_humidity;BME280_pressure;Samples;Min_cycle;Max_cycle;Signal;HPM_P1;HPM_P2
2021/12/08 00:00:25;;;;;;;;;;;;;;;21.37;34.88;99760.73;99244;1386;73277;-81
2021/12/08 00:03:25;;;;;;;;;;;;;;;21.37;34.91;99764.48;99008;1386;73799;-81
2021/12/08 00:06:42;;;;;;;;;;;;;;;21.37;34.81;99766.62;99230;1388;61665;-81
2021/12/08 00:10:01;;;;;;;;;;;;;;;21.38;34.95;99774.25;99234;1387;61676;-81
2021/12/08 00:15:42;;;;;;;;;;;;;;;21.39;34.89;99773.63;99221;1384;75757;-80
2021/12/08 00:18:48;;;;;;;;;;;;;;;21.39;34.85;99774.85;99390;1383;61214;-81
2021/12/08 00:21:55;;;;;;;;;;;;;;;21.39;34.92;99775.39;99612;1383;61674;-81
2021/12/08 00:25:01;;;;;;;;;;;;;;;21.39;34.83;99774.13;99627;1378;74299;-81
2021/12/08 00:27:45;;;;;;;;;;;;;;;;;;;;;
2021/12/08 00:31:04;;;;;;;;;;;;;;;21.40;34.86;99783.38;99955;1372;62047;-81
2021/12/08 00:34:11;;;;;;;;;;;;;;;21.40;34.72;99782.84;100317;1375;61404;-80
2021/12/08 00:37:10;;;;;;;;;;;;;;;21.40;34.80;99785.16;100677;1366;72874;-81
2021/12/08 00:40:30;;;;;;;;;;;;;;;21.40;34.90;99781.93;101223;1360;75222;-81
2021/12/08 00:43:21;;;;;;;;;;;;;;;;;;;;;
2021/12/08 00:46:02;;;;;;;;;;;;;;;21.40;34.76;99793.73;101515;1360;60142;-81
2021/12/08 00:49:11;;;;;;;;;;;;;;;;;;;;;
2021/12/08 00:52:28;;;;;;;;;;;;;;;;;;;;;
2021/12/08 00:55:31;;;;;;;;;;;;;;;;;;;;;
2021/12/08 00:58:53;;;;;;;;;;;;;;;21.41;34.61;99799.75;101084;1367;61914;-80
2021/12/08 01:01:33;;;;;;;;;;;;;;;;;;;;;
2021/12/08 01:04:39;;;;;;;;;;;;;;;;;;;;;
2021/12/08 01:08:11;;;;;;;;;;;;;;;21.41;34.76;99798.31;100591;1372;61649;-81
2021/12/08 01:11:11;;;;;;;;;;;;;;;21.41;34.69;99798.70;100561;1366;61326;-81
2021/12/08 01:14:17;;;;;;;;;;;;;;;21.41;34.67;99802.40;100358;1372;73997;-81
2021/12/08 01:17:16;;;;;;;;;;;;;;;;;;;;;
2021/12/08 01:20:09;;;;;;;;;;;;;;;21.42;34.76;99802.55;100251;1369;61684;-82
2021/12/08 01:23:05;;;;;;;;;;;;;;;;;;;;;
2021/12/08 01:26:01;;;;;;;;;;;;;;;21.41;34.76;99799.73;100019;1373;74083;-81
2021/12/08 01:28:57;;;;;;;;;;;;;;;;;;;;;
2021/12/08 01:32:06;;;;;;;;;;;;;;;21.41;34.74;99799.74;100104;1372;61447;-81
2021/12/08 01:35:01;;;;;;;;;;;;;;;21.42;34.71;99805.77;100278;1374;61211;-81
2021/12/08 01:38:22;;;;;;;;;;;;;;;21.42;34.62;99803.13;99838;1379;74363;-81
2021/12/08 01:41:28;;;;;;;;;;;;;;;;;;;;;
2021/12/08 01:47:36;;;;;;;;;;;;;;;;;;;;;
2021/12/08 01:50:41;;;;;;;;;;;;;;;21.42;34.47;99809.30;99284;1388;73057;-81
2021/12/08 01:53:34;;;;;;;;;;;;;;;21.42;34.48;99807.55;99308;1381;75293;-81
2021/12/08 01:56:52;;;;;;;;;;;;;;;;;;;;;
2021/12/08 02:00:07;;;;;;;;;;;;;;;21.43;34.55;99812.45;99079;1384;61335;-80
2021/12/08 02:02:40;;;;;;;;;;;;;;;;;;;;;
2021/12/08 02:06:23;;;;;;;;;;;;;;;21.43;34.56;99814.96;98652;1390;73534;-81
2021/12/08 02:08:54;;;;;;;;;;;;;;;21.43;34.51;99811.93;98570;1397;61518;-81
2021/12/08 02:11:44;;;;;;;;;;;;;;;;;;;;;
2021/12/08 02:14:59;;;;;;;;;;;;;;;21.42;34.47;99815.73;98452;1397;73928;-81
2021/12/08 02:18:04;;;;;;;;;;;;;;;21.43;34.52;99816.56;98586;1393;75926;-81
2021/12/08 02:20:52;;;;;;;;;;;;;;;21.44;34.51;99817.05;98557;1394;61588;-80
2021/12/08 02:24:24;;;;;;;;;;;;;;;21.44;34.50;99821.52;98813;1386;61327;-80
2021/12/08 02:26:52;;;;;;;;;;;;;;;21.44;34.48;99823.87;99155;1390;73365;-80
2021/12/08 02:47:31;;;;;;;;;;;;;;;21.45;34.44;99835.08;98690;1392;61501;-81
2021/12/08 02:49:42;;;;;;;;;;;;;;;21.45;34.45;99837.39;98867;1389;61411;-81
2021/12/08 02:52:59;;;;;;;;;;;;;;;;;;;;;
2021/12/08 02:56:02;;;;;;;;;;;;;;;;;;;;;
2021/12/08 02:59:08;;;;;;;;;;;;;;;;;;;;;
2021/12/08 03:02:07;;;;;;;;;;;;;;;;;;;;;
2021/12/08 03:05:13;;;;;;;;;;;;;;;21.46;34.23;99841.38;97375;1404;74378;-80
2021/12/08 03:09:04;;;;;;;;;;;;;;;21.47;34.37;99843.27;97403;1404;73534;-81
2021/12/08 03:11:34;;;;;;;;;;;;;;;21.48;34.49;99849.69;97842;1404;61760;-81
2021/12/08 03:14:31;;;;;;;;;;;;;;;21.48;34.44;99853.24;98152;1397;61709;-81
2021/12/08 03:17:36;;;;;;;;;;;;;;;;;;;;;
2021/12/08 03:20:32;;;;;;;;;;;;;;;;;;;;;
2021/12/08 03:24:16;;;;;;;;;;;;;;;21.47;34.25;99858.64;98140;1402;63046;-81
2021/12/08 03:27:31;;;;;;;;;;;;;;;21.47;34.21;99859.70;97679;1406;61586;-81
2021/12/08 03:29:45;;;;;;;;;;;;;;;;;;;;;
2021/12/08 03:35:49;;;;;;;;;;;;;;;;;;;;;
2021/12/08 03:38:57;;;;;;;;;;;;;;;21.47;34.29;99868.51;98586;1395;61318;-81
2021/12/08 03:42:04;;;;;;;;;;;;;;;21.48;34.16;99873.12;98680;1390;74271;-81
2021/12/08 03:44:46;;;;;;;;;;;;;;;21.47;34.23;99869.21;99106;1386;74886;-80
2021/12/08 03:50:56;;;;;;;;;;;;;;;21.48;34.23;99876.15;99477;1377;61257;-80
2021/12/08 03:53:51;;;;;;;;;;;;;;;21.48;34.24;99878.27;99409;1380;73975;-81
2021/12/08 03:56:49;;;;;;;;;;;;;;;21.48;34.21;99879.00;99826;1377;75730;-81
2021/12/08 04:00:00;;;;;;;;;;;;;;;21.48;34.25;99880.08;100080;1372;61341;-81
2021/12/08 04:03:17;;;;;;;;;;;;;;;21.48;34.10;99884.51;100204;1375;62307;-81
2021/12/08 04:06:17;;;;;;;;;;;;;;;;;;;;;
2021/12/08 04:09:25;;;;;;;;;;;;;;;21.48;34.23;99890.84;99612;1381;76411;-81
2021/12/08 04:13:16;;;;;;;;;;;;;;;21.48;34.19;99891.69;99413;1384;61559;-81
2021/12/08 04:16:00;;;;;;;;;;;;;;;21.48;34.19;99893.83;99377;1384;61301;-80
2021/12/08 04:19:08;;;;;;;;;;;;;;;21.49;34.03;99900.42;98786;1390;71570;-80
2021/12/08 04:22:32;;;;;;;;;;;;;;;21.48;34.07;99900.79;98616;1394;74782;-81
2021/12/08 04:25:26;;;;;;;;;;;;;;;21.49;34.07;99904.73;98611;1392;61346;-81
2021/12/08 04:28:51;;;;;;;;;;;;;;;21.48;34.04;99907.60;98619;1399;61457;-81
2021/12/08 04:31:57;;;;;;;;;;;;;;;21.48;34.08;99909.77;98563;1396;73988;-81
2021/12/08 04:34:38;;;;;;;;;;;;;;;21.48;34.00;99909.60;98633;1397;74962;-81
2021/12/08 04:37:56;;;;;;;;;;;;;;;;;;;;;
2021/12/08 04:47:45;;;;;;;;;;;;;;;;;;;;;
2021/12/08 05:01:44;;;;;;;;;;;;;;;;;;;;;
2021/12/08 05:11:13;;;;;;;;;;;;;;;;;;;;;
2021/12/08 05:14:03;;;;;;;;;;;;;;;21.48;34.06;99940.56;99274;1381;74997;-80
2021/12/08 05:17:11;;;;;;;;;;;;;;;;;;;;;
2021/12/08 05:20:17;;;;;;;;;;;;;;;;;;;;;
2021/12/08 05:23:35;;;;;;;;;;;;;;;;;;;;;
2021/12/08 05:26:49;;;;;;;;;;;;;;;21.43;34.11;99955.29;99718;1377;74372;-82
2021/12/08 05:29:47;;;;;;;;;;;;;;;21.43;34.21;99956.56;99823;1375;61911;-81
2021/12/08 05:32:58;;;;;;;;;;;;;;;;;;;;;
2021/12/08 05:36:12;;;;;;;;;;;;;;;21.38;34.36;99957.04;99454;1381;74677;-81
2021/12/08 05:39:46;;;;;;;;;;;;;;;21.34;34.19;99959.87;99465;1383;75915;-81
2021/12/08 05:42:18;;;;;;;;;;;;;;;21.29;34.17;99960.99;99358;1377;61308;-82
2021/12/08 05:44:50;;;;;;;;;;;;;;;21.23;34.02;99965.27;98884;1380;61534;-81
2021/12/08 05:47:24;;;;;;;;;;;;;;;21.16;33.98;99968.34;98799;1380;72947;-81
2021/12/08 05:50:13;;;;;;;;;;;;;;;21.10;33.95;99969.17;99200;1377;74744;-79
2021/12/08 05:52:44;;;;;;;;;;;;;;;21.04;33.91;99974.04;99094;1377;61359;-79
2021/12/08 05:55:13;;;;;;;;;;;;;;;20.96;33.95;99975.39;99326;1372;61247;-79
2021/12/08 05:57:59;;;;;;;;;;;;;;;20.88;33.94;99975.29;99235;1371;61415;-79
2021/12/08 06:00:44;;;;;;;;;;;;;;;20.82;33.97;99977.27;99504;1365;74817;-80
2021/12/08 06:03:11;;;;;;;;;;;;;;;20.75;34.14;99977.63;99351;1368;61466;-79
2021/12/08 06:05:48;;;;;;;;;;;;;;;20.72;34.22;99981.86;99605;1365;62075;-78
2021/12/08 06:08:29;;;;;;;;;;;;;;;20.67;34.10;99982.41;99893;1369;72813;-79
2021/12/08 06:11:35;;;;;;;;;;;;;;;20.59;34.16;99992.16;100252;1363;73743;-79
2021/12/08 06:14:00;;;;;;;;;;;;;;;20.56;34.33;99997.23;102073;1357;60114;-80
2021/12/08 06:16:30;;;;;;;;;;;;;;;20.56;34.18;99997.95;102172;1356;60794;-79
2021/12/08 06:18:57;;;;;;;;;;;;;;;20.58;34.39;99999.71;102146;1356;73858;-80
2021/12/08 06:21:28;;;;;;;;;;;;;;;20.63;34.29;99998.29;101856;1353;75247;-79
2021/12/08 06:23:54;;;;;;;;;;;;;;;20.67;34.36;100003.18;101192;1347;61390;-79
2021/12/08 06:26:20;;;;;;;;;;;;;;;20.70;34.52;100005.64;101213;1350;61323;-78
2021/12/08 06:28:49;;;;;;;;;;;;;;;20.73;34.51;100008.77;101018;1350;72901;-78
2021/12/08 06:31:17;;;;;;;;;;;;;;;20.75;34.51;100007.84;101095;1355;61460;-79
2021/12/08 06:33:44;;;;;;;;;;;;;;;20.78;34.52;100007.26;101015;1351;61219;-78
2021/12/08 06:36:11;;;;;;;;;;;;;;;20.81;34.53;100012.21;101047;1351;61954;-78
2021/12/08 06:38:37;;;;;;;;;;;;;;;20.85;34.36;100017.44;101112;1350;72856;-79
2021/12/08 06:41:11;;;;;;;;;;;;;;;20.87;34.45;100019.75;101277;1346;61441;-79
2021/12/08 06:43:38;;;;;;;;;;;;;;;20.91;34.45;100025.35;101287;1347;61336;-79
2021/12/08 06:46:04;;;;;;;;;;;;;;;20.94;34.25;100027.10;101802;1348;61326;-79
2021/12/08 06:48:34;;;;;;;;;;;;;;;20.97;34.44;100028.09;101057;1348;61342;-78
2021/12/08 06:51:04;;;;;;;;;;;;;;;21.00;34.37;100027.52;102633;1350;75645;-79
2021/12/08 06:53:30;;;;;;;;;;;;;;;21.03;34.36;100031.70;101259;1350;61157;-79
2021/12/08 06:55:57;;;;;;;;;;;;;;;21.03;34.33;100034.73;101061;1350;61455;-78
2021/12/08 06:58:25;;;;;;;;;;;;;;;21.00;34.25;100041.40;101245;1347;74014;-79
2021/12/08 07:01:11;;;;;;;;;;;;;;;;;;;;;
2021/12/08 07:03:46;;;;;;;;;;;;;;;20.93;34.42;100047.48;100766;1354;61331;-78
2021/12/08 07:09:05;;;;;;;;;;;;;;;20.97;34.65;100046.67;100728;1353;72059;-80
2021/12/08 07:11:47;;;;;;;;;;;;;;;20.99;34.64;100051.17;101010;1353;74663;-78
2021/12/08 07:14:16;;;;;;;;;;;;;;;21.02;34.57;100049.89;100990;1353;62225;-81
2021/12/08 07:16:42;;;;;;;;;;;;;;;21.05;34.80;100047.30;100921;1351;61298;-78
2021/12/08 07:19:26;;;;;;;;;;;;;;;21.07;34.77;100043.91;100936;1353;72930;-79
2021/12/08 07:21:52;;;;;;;;;;;;;;;21.09;34.75;100043.20;101311;1351;74742;-78
2021/12/08 07:24:19;;;;;;;;;;;;;;;21.11;34.80;100047.66;100991;1353;62038;-81
2021/12/08 07:26:45;;;;;;;;;;;;;;;21.14;34.94;100050.45;100762;1353;62976;-78
2021/12/08 07:29:12;;;;;;;;;;;;;;;21.17;34.95;100053.23;100868;1353;61352;-82
2021/12/08 07:31:42;;;;;;;;;;;;;;;21.20;35.20;100056.08;100855;1354;75420;-78
2021/12/08 07:34:17;;;;;;;;;;;;;;;21.23;35.08;100057.95;100974;1351;63217;-78
2021/12/08 07:37:05;;;;;;;;;;;;;;;21.27;35.01;100059.27;100980;1354;61260;-78
2021/12/08 07:39:42;;;;;;;;;;;;;;;21.31;35.07;100058.92;101099;1351;73899;-79
2021/12/08 07:42:28;;;;;;;;;;;;;;;21.34;35.04;100058.08;100920;1351;74987;-79
2021/12/08 07:44:58;;;;;;;;;;;;;;;21.38;35.19;100056.50;101303;1348;61299;-79
2021/12/08 07:47:38;;;;;;;;;;;;;;;21.41;35.16;100057.33;101293;1352;61255;-79
2021/12/08 07:50:11;;;;;;;;;;;;;;;21.44;35.11;100059.39;101067;1346;72500;-80
2021/12/08 07:52:37;;;;;;;;;;;;;;;21.48;35.19;100057.31;102672;1348;73802;-81
2021/12/08 07:55:11;;;;;;;;;;;;;;;21.48;35.14;100061.62;102584;1344;60018;-81
2021/12/08 07:57:37;;;;;;;;;;;;;;;21.47;35.41;100060.65;102541;1349;60028;-81
2021/12/08 08:00:06;;;;;;;;;;;;;;;21.46;35.38;100061.58;102544;1351;72598;-81
2021/12/08 08:02:32;;;;;;;;;;;;;;;21.47;35.39;100060.99;102566;1349;75589;-81
2021/12/08 08:04:58;;;;;;;;;;;;;;;21.48;35.52;100062.84;102651;1348;59748;-82
2021/12/08 08:07:24;;;;;;;;;;;;;;;21.50;35.50;100067.88;102507;1349;59450;-80
2021/12/08 08:09:57;;;;;;;;;;;;;;;21.53;35.52;100066.21;101632;1359;59273;-80
2021/12/08 08:12:23;;;;;;;;;;;;;;;21.53;35.79;100069.41;102427;1351;74850;-80
2021/12/08 08:14:52;;;;;;;;;;;;;;;21.55;35.76;100073.02;101051;1354;61350;-80
2021/12/08 08:17:18;;;;;;;;;;;;;;;21.56;35.61;100069.67;102545;1352;60271;-80
2021/12/08 08:19:45;;;;;;;;;;;;;;;21.58;35.73;100069.36;101344;1350;71798;-80
2021/12/08 08:22:31;;;;;;;;;;;;;;;21.60;35.75;100070.05;101197;1350;74865;-80
2021/12/08 08:24:57;;;;;;;;;;;;;;;21.64;35.68;100076.63;101049;1347;61364;-79
2021/12/08 08:27:23;;;;;;;;;;;;;;;21.65;35.55;100079.14;101040;1350;61259;-80
2021/12/08 08:29:49;;;;;;;;;;;;;;;21.68;35.55;100082.15;101124;1349;61437;-79
2021/12/08 08:32:20;;;;;;;;;;;;;;;21.69;35.54;100083.85;101000;1353;61864;-79
2021/12/08 08:34:52;;;;;;;;;;;;;;;21.70;35.45;100086.44;102786;1353;60247;-81
2021/12/08 08:37:17;;;;;;;;;;;;;;;21.71;35.37;100089.06;102715;1351;61892;-80
2021/12/08 08:39:56;;;;;;;;;;;;;;;21.69;35.40;100085.66;102721;1347;59084;-80
2021/12/08 08:42:29;;;;;;;;;;;;;;;21.66;35.39;100083.60;102618;1355;75788;-79
2021/12/08 08:44:58;;;;;;;;;;;;;;;21.63;35.25;100082.37;102649;1351;61523;-79
2021/12/08 08:47:36;;;;;;;;;;;;;;;21.61;35.15;100076.98;102526;1353;60665;-79
2021/12/08 08:50:06;;;;;;;;;;;;;;;21.60;35.26;100074.18;102546;1350;72782;-79
2021/12/08 08:52:33;;;;;;;;;;;;;;;21.61;35.20;100074.27;102592;1354;73668;-79
2021/12/08 08:55:00;;;;;;;;;;;;;;;21.64;35.27;100073.19;102519;1349;59944;-79
2021/12/08 08:57:29;;;;;;;;;;;;;;;21.65;35.30;100069.16;102576;1350;61636;-79
2021/12/08 09:00:01;;;;;;;;;;;;;;;21.65;35.16;100069.29;101591;1355;72834;-80
2021/12/08 09:02:37;;;;;;;;;;;;;;;21.67;35.35;100066.85;101106;1350;74815;-79
2021/12/08 09:05:04;;;;;;;;;;;;;;;21.68;35.28;100064.61;102535;1350;60291;-79
2021/12/08 09:07:39;;;;;;;;;;;;;;;21.69;35.32;100063.41;102146;1348;61308;-79
2021/12/08 09:10:13;;;;;;;;;;;;;;;21.71;35.35;100054.51;101319;1347;73105;-79
2021/12/08 09:12:51;;;;;;;;;;;;;;;21.72;35.22;100055.65;101311;1349;74199;-81
2021/12/08 09:15:36;;;;;;;;;;;;;;;21.73;35.41;100056.25;101189;1349;62467;-79
2021/12/08 09:18:09;;;;;;;;;;;;;;;21.75;35.17;100051.11;101211;1353;61673;-79
2021/12/08 09:21:05;;;;;;;;;;;;;;;;;;;;;
2021/12/08 09:23:45;;;;;;;;;;;;;;;21.74;35.13;100052.27;101282;1349;75757;-79
2021/12/08 09:26:26;;;;;;;;;;;;;;;21.71;35.10;100051.20;101204;1351;61415;-79
2021/12/08 09:28:54;;;;;;;;;;;;;;;21.70;35.13;100055.44;101277;1348;61420;-79
2021/12/08 09:31:28;;;;;;;;;;;;;;;21.70;35.14;100055.30;101177;1349;72883;-80
2021/12/08 09:34:31;;;;;;;;;;;;;;;21.70;34.98;100055.27;101344;1352;74767;-78
2021/12/08 09:37:02;;;;;;;;;;;;;;;21.70;34.80;100053.81;101134;1360;61377;-79
2021/12/08 09:39:54;;;;;;;;;;;;;;;21.72;34.76;100050.31;100857;1355;61352;-79
2021/12/08 09:42:24;;;;;;;;;;;;;;;21.71;34.70;100052.14;100925;1359;71764;-79
2021/12/08 09:44:56;;;;;;;;;;;;;;;21.71;34.57;100051.27;100814;1356;73680;-79
2021/12/08 09:47:29;;;;;;;;;;;;;;;21.71;34.27;100046.08;100742;1353;61377;-79
2021/12/08 09:50:01;;;;;;;;;;;;;;;21.70;34.50;100044.87;100688;1355;62931;-79
2021/12/08 09:52:27;;;;;;;;;;;;;;;21.69;34.61;100043.38;101381;1354;72738;-79
2021/12/08 09:54:58;;;;;;;;;;;;;;;21.63;34.49;100046.55;100593;1354;61665;-81
2021/12/08 09:57:24;;;;;;;;;;;;;;;21.55;34.64;100046.73;100618;1353;62842;-79
2021/12/08 09:59:49;;;;;;;;;;;;;;;21.48;34.52;100050.70;102068;1351;59872;-79
2021/12/08 10:02:24;;;;;;;;;;;;;;;21.40;34.64;100048.59;102145;1354;60199;-80
2021/12/08 10:04:50;;;;;;;;;;;;;;;21.29;34.69;100048.11;102112;1355;74879;-80
2021/12/08 10:07:15;;;;;;;;;;;;;;;21.22;34.69;100049.10;101963;1355;59582;-79
2021/12/08 10:09:42;;;;;;;;;;;;;;;21.17;34.94;100043.97;100709;1355;61375;-78
2021/12/08 10:12:08;;;;;;;;;;;;;;;21.15;34.98;100043.77;100917;1354;61353;-78
2021/12/08 10:14:37;;;;;;;;;;;;;;;21.17;35.00;100044.70;101030;1351;61303;-79
2021/12/08 10:17:05;;;;;;;;;;;;;;;21.20;35.20;100045.15;101039;1351;61388;-79
2021/12/08 10:19:40;;;;;;;;;;;;;;;21.24;35.12;100041.06;101220;1348;61341;-80
2021/12/08 10:22:39;;;;;;;;;;;;;;;21.26;35.04;100039.08;101326;1350;61654;-81
2021/12/08 10:25:28;;;;;;;;;;;;;;;21.27;35.02;100036.48;100628;1354;73252;-79
2021/12/08 10:28:24;;;;;;;;;;;;;;;21.30;35.12;100038.05;100670;1357;61254;-80
2021/12/08 10:31:11;;;;;;;;;;;;;;;21.32;35.17;100040.73;100355;1365;61260;-80
2021/12/08 10:36:56;;;;;;;;;;;;;;;;;;;;;
2021/12/08 10:39:56;;;;;;;;;;;;;;;21.33;35.29;100046.17;99935;1365;61360;-80
2021/12/08 10:42:31;;;;;;;;;;;;;;;21.32;35.22;100047.73;99495;1371;61288;-80
2021/12/08 10:45:25;;;;;;;;;;;;;;;;;;;;;
2021/12/08 10:47:59;;;;;;;;;;;;;;;21.34;35.29;100053.31;99547;1371;75330;-81
2021/12/08 10:56:24;;;;;;;;;;;;;;;21.00;35.52;100066.63;99206;1375;73036;-80
2021/12/08 10:58:57;;;;;;;;;;;;;;;20.86;35.58;100064.21;98977;1371;75446;-79
2021/12/08 11:01:23;;;;;;;;;;;;;;;20.75;35.63;100057.56;100780;1369;60199;-80
2021/12/08 11:03:50;;;;;;;;;;;;;;;20.66;35.65;100061.53;100937;1369;60565;-79
2021/12/08 11:06:17;;;;;;;;;;;;;;;20.55;35.66;100064.55;100654;1374;60690;-79
2021/12/08 11:08:46;;;;;;;;;;;;;;;20.51;35.76;100060.71;101390;1368;74664;-80
2021/12/08 11:11:20;;;;;;;;;;;;;;;20.52;35.84;100061.72;101516;1361;60339;-80
2021/12/08 11:13:47;;;;;;;;;;;;;;;20.51;35.78;100056.84;101493;1362;61530;-79
2021/12/08 11:16:16;;;;;;;;;;;;;;;20.49;35.81;100059.10;102001;1359;59539;-79
2021/12/08 11:18:46;;;;;;;;;;;;;;;20.50;35.76;100058.48;102523;1347;75888;-79
2021/12/08 11:21:19;;;;;;;;;;;;;;;20.55;35.81;100053.79;102782;1348;61226;-79
2021/12/08 11:23:59;;;;;;;;;;;;;;;20.61;35.75;100055.80;102503;1349;61082;-79
2021/12/08 11:26:27;;;;;;;;;;;;;;;20.67;35.89;100058.07;102555;1350;59384;-79
2021/12/08 11:29:00;;;;;;;;;;;;;;;20.73;35.94;100059.89;102356;1351;74645;-79
2021/12/08 11:31:30;;;;;;;;;;;;;;;20.78;35.80;100058.59;102754;1353;60217;-79
2021/12/08 11:34:05;;;;;;;;;;;;;;;20.85;35.86;100059.67;102684;1355;61543;-79
2021/12/08 11:36:35;;;;;;;;;;;;;;;20.90;35.95;100062.41;102689;1350;73341;-79
2021/12/08 11:39:09;;;;;;;;;;;;;;;20.95;36.03;100068.68;101142;1353;75887;-78
2021/12/08 11:42:08;;;;;;;;;;;;;;;20.99;35.95;100068.19;101305;1348;61745;-79
2021/12/08 11:44:41;;;;;;;;;;;;;;;21.00;35.93;100062.52;101254;1348;61084;-79
2021/12/08 11:47:16;;;;;;;;;;;;;;;20.98;35.98;100063.38;101009;1350;73947;-78
2021/12/08 11:49:44;;;;;;;;;;;;;;;20.91;36.01;100061.61;101019;1351;75610;-80
2021/12/08 11:52:13;;;;;;;;;;;;;;;20.83;35.91;100055.72;102336;1353;60657;-80
2021/12/08 11:54:59;;;;;;;;;;;;;;;20.73;35.85;100058.29;102521;1351;60397;-80
2021/12/08 11:57:36;;;;;;;;;;;;;;;20.65;35.84;100059.45;102679;1345;73194;-80
2021/12/08 12:00:05;;;;;;;;;;;;;;;20.56;35.91;100062.27;102575;1355;74800;-79
2021/12/08 12:02:36;;;;;;;;;;;;;;;20.50;35.85;100067.98;102580;1345;59333;-80
2021/12/08 12:05:07;;;;;;;;;;;;;;;20.39;35.90;100072.44;102550;1350;61622;-80
2021/12/08 12:07:32;;;;;;;;;;;;;;;20.30;35.86;100074.27;102504;1352;72937;-80
2021/12/08 12:09:58;;;;;;;;;;;;;;;20.16;35.99;100074.06;102537;1345;59439;-79
2021/12/08 12:12:28;;;;;;;;;;;;;;;20.06;35.97;100077.32;102676;1351;61110;-80
2021/12/08 12:14:54;;;;;;;;;;;;;;;20.09;36.07;100076.92;102576;1353;59815;-81
2021/12/08 12:17:19;;;;;;;;;;;;;;;20.12;36.15;100077.25;102649;1350;59915;-80
2021/12/08 12:19:49;;;;;;;;;;;;;;;20.15;36.34;100076.30;102597;1352;59579;-80
2021/12/08 12:22:31;;;;;;;;;;;;;;;20.19;36.33;100074.19;102577;1348;59574;-79
2021/12/08 12:25:16;;;;;;;;;;;;;;;20.27;36.43;100074.45;102734;1350;61356;-80
2021/12/08 12:27:55;;;;;;;;;;;;;;;20.35;36.34;100077.69;101789;1358;71411;-79
2021/12/08 12:30:43;;;;;;;;;;;;;;;20.42;36.50;100078.41;102143;1353;74872;-80
2021/12/08 12:33:22;;;;;;;;;;;;;;;20.48;36.31;100087.13;101169;1350;61248;-79
2021/12/08 12:35:55;;;;;;;;;;;;;;;20.49;36.12;100089.88;101155;1348;61547;-78
2021/12/08 12:38:37;;;;;;;;;;;;;;;20.45;36.16;100097.70;101268;1347;73387;-78
2021/12/08 12:41:09;;;;;;;;;;;;;;;20.40;36.10;100096.80;101109;1349;74877;-78
2021/12/08 12:44:16;;;;;;;;;;;;;;;20.37;36.08;100096.36;100683;1353;61689;-81
2021/12/08 12:47:11;;;;;;;;;;;;;;;20.34;36.04;100098.45;100794;1354;62193;-81
2021/12/08 12:50:03;;;;;;;;;;;;;;;20.29;36.06;100100.21;100797;1352;72777;-80
2021/12/08 12:52:38;;;;;;;;;;;;;;;20.26;36.24;100104.35;100563;1353;74885;-79
2021/12/08 12:55:09;;;;;;;;;;;;;;;20.24;36.16;100109.69;100604;1353;61181;-79
2021/12/08 13:01:04;;;;;;;;;;;;;;;20.28;36.18;100112.79;100521;1359;73777;-80
2021/12/08 13:03:54;;;;;;;;;;;;;;;20.29;36.20;100110.44;100178;1363;74735;-79
2021/12/08 13:07:02;;;;;;;;;;;;;;;;;;;;;
2021/12/08 13:10:29;;;;;;;;;;;;;;;;;;;;;
2021/12/08 13:12:43;;;;;;;;;;;;;;;20.32;36.36;100122.84;100854;1376;72997;-78
2021/12/08 13:15:13;;;;;;;;;;;;;;;20.36;36.43;100125.05;100863;1379;59147;-80
2021/12/08 13:18:01;;;;;;;;;;;;;;;20.38;36.37;100129.65;100909;1372;59650;-79
2021/12/08 13:20:30;;;;;;;;;;;;;;;20.40;36.37;100128.80;100878;1371;60548;-79
2021/12/08 13:22:58;;;;;;;;;;;;;;;20.41;36.39;100133.21;100868;1372;72745;-79
2021/12/08 13:25:24;;;;;;;;;;;;;;;20.42;36.37;100137.75;100935;1372;73733;-79
2021/12/08 13:27:54;;;;;;;;;;;;;;;20.44;36.32;100140.14;100738;1372;60315;-78
2021/12/08 13:30:20;;;;;;;;;;;;;;;20.45;36.31;100138.42;100573;1371;61671;-78
2021/12/08 13:33:18;;;;;;;;;;;;;;;20.45;36.21;100141.86;99621;1371;72875;-78
2021/12/08 13:36:13;;;;;;;;;;;;;;;20.43;36.07;100143.20;99781;1370;75891;-78
2021/12/08 13:38:52;;;;;;;;;;;;;;;;;;;;;
2021/12/08 13:42:00;;;;;;;;;;;;;;;20.40;35.99;100137.03;100289;1362;61469;-80
2021/12/08 13:44:47;;;;;;;;;;;;;;;20.39;35.82;100137.33;100750;1363;72971;-80
2021/12/08 13:47:53;;;;;;;;;;;;;;;;;;;;;
2021/12/08 13:50:38;;;;;;;;;;;;;;;20.37;35.71;100134.25;101054;1363;61575;-81
2021/12/08 13:53:26;;;;;;;;;;;;;;;20.36;35.68;100135.74;100615;1359;61589;-79
2021/12/08 13:56:29;;;;;;;;;;;;;;;20.34;35.64;100140.72;100823;1360;72182;-79
2021/12/08 13:59:18;;;;;;;;;;;;;;;20.33;35.57;100146.70;100342;1368;76147;-79
2021/12/08 14:02:04;;;;;;;;;;;;;;;20.31;35.59;100147.38;100264;1365;61296;-79
2021/12/08 14:04:41;;;;;;;;;;;;;;;20.30;35.60;100148.35;99878;1368;61814;-79
2021/12/08 14:07:27;;;;;;;;;;;;;;;20.29;35.54;100149.53;99721;1369;72533;-79
2021/12/08 14:10:00;;;;;;;;;;;;;;;20.28;35.43;100153.02;99945;1371;75877;-79
2021/12/08 14:16:20;;;;;;;;;;;;;;;;;;;;;
2021/12/08 14:19:10;;;;;;;;;;;;;;;;;;;;;
2021/12/08 14:22:12;;;;;;;;;;;;;;;20.28;35.35;100150.87;99909;1372;74330;-78
2021/12/08 14:24:59;;;;;;;;;;;;;;;20.29;35.36;100149.70;99675;1373;62697;-78
2021/12/08 14:27:57;;;;;;;;;;;;;;;20.35;35.41;100151.20;99679;1375;61352;-78
2021/12/08 14:30:46;;;;;;;;;;;;;;;20.40;35.44;100150.59;99693;1371;71902;-78
2021/12/08 14:33:31;;;;;;;;;;;;;;;20.47;35.53;100157.05;99774;1373;74826;-78
2021/12/08 14:36:11;;;;;;;;;;;;;;;20.54;35.56;100153.86;100095;1368;61390;-78
2021/12/08 14:38:59;;;;;;;;;;;;;;;20.59;35.52;100159.48;101622;1367;59214;-78
2021/12/08 14:42:03;;;;;;;;;;;;;;;20.64;35.52;100166.48;100637;1365;71830;-78
2021/12/08 14:45:31;;;;;;;;;;;;;;;20.68;35.49;100170.96;101155;1360;74613;-79
2021/12/08 14:48:45;;;;;;;;;;;;;;;20.73;35.51;100176.08;100966;1362;61486;-78
2021/12/08 14:51:14;;;;;;;;;;;;;;;20.78;35.44;100175.23;101733;1351;61443;-78
2021/12/08 14:54:02;;;;;;;;;;;;;;;20.80;35.34;100173.77;101453;1353;72955;-80
2021/12/08 14:57:26;;;;;;;;;;;;;;;20.84;35.35;100178.28;101238;1359;73482;-78
2021/12/08 15:00:44;;;;;;;;;;;;;;;;;;;;;
2021/12/08 15:03:46;;;;;;;;;;;;;;;20.90;35.42;100177.10;101191;1363;61219;-81
2021/12/08 15:06:29;;;;;;;;;;;;;;;20.92;35.50;100181.58;101142;1366;73882;-81
2021/12/08 15:09:38;;;;;;;;;;;;;;;;;;;;;
2021/12/08 15:12:42;;;;;;;;;;;;;;;;;;;;;
2021/12/08 15:15:43;;;;;;;;;;;;;;;;;;;;;
2021/12/08 15:18:55;;;;;;;;;;;;;;;20.98;35.35;100189.40;101017;1364;73907;-78
2021/12/08 15:25:02;;;;;;;;;;;;;;;21.00;35.33;100203.35;100303;1368;62614;-81
2021/12/08 15:28:00;;;;;;;;;;;;;;;;;;;;;
2021/12/08 15:31:01;;;;;;;;;;;;;;;;;;;;;
2021/12/08 15:34:18;;;;;;;;;;;;;;;;;;;;;
2021/12/08 15:37:16;;;;;;;;;;;;;;;21.01;35.32;100213.94;99249;1384;61421;-80
2021/12/08 15:40:39;;;;;;;;;;;;;;;;;;;;;
2021/12/08 15:43:15;;;;;;;;;;;;;;;;;;;;;
2021/12/08 15:46:36;;;;;;;;;;;;;;;;;;;;;
2021/12/08 15:49:39;;;;;;;;;;;;;;;21.04;35.44;100222.98;98806;1390;61410;-80
2021/12/08 15:52:31;;;;;;;;;;;;;;;;;;;;;
2021/12/08 15:55:44;;;;;;;;;;;;;;;21.06;35.44;100223.63;98498;1400;74010;-81
2021/12/08 15:58:29;;;;;;;;;;;;;;;21.06;35.48;100230.40;97936;1402;74902;-80
2021/12/08 16:01:56;;;;;;;;;;;;;;;21.07;35.38;100227.27;97410;1408;61266;-80
2021/12/08 16:05:13;;;;;;;;;;;;;;;;;;;;;
2021/12/08 16:08:27;;;;;;;;;;;;;;;21.07;35.48;100238.14;97256;1412;72967;-81
2021/12/08 16:11:35;;;;;;;;;;;;;;;21.08;35.54;100239.17;97464;1401;74837;-80
2021/12/08 16:15:04;;;;;;;;;;;;;;;21.08;35.39;100238.96;98061;1399;61464;-81
2021/12/08 16:18:33;;;;;;;;;;;;;;;21.09;35.47;100239.94;98536;1395;61569;-81
2021/12/08 16:21:13;;;;;;;;;;;;;;;21.10;35.50;100238.98;98222;1401;74540;-81
2021/12/08 16:24:55;;;;;;;;;;;;;;;21.10;35.53;100243.80;97821;1401;73792;-80
2021/12/08 16:30:53;;;;;;;;;;;;;;;21.12;35.46;100249.94;98455;1401;61391;-80
2021/12/08 16:34:03;;;;;;;;;;;;;;;21.12;35.55;100251.02;97983;1401;71681;-82
2021/12/08 16:37:57;;;;;;;;;;;;;;;21.12;35.42;100251.55;98760;1396;73536;-81
2021/12/08 16:43:41;;;;;;;;;;;;;;;;;;;;;
2021/12/08 16:47:00;;;;;;;;;;;;;;;;;;;;;
2021/12/08 16:49:53;;;;;;;;;;;;;;;21.14;35.51;100261.98;98711;1396;74850;-81